M I D A S
Marine Information and Data Acquisition System
Tripno 2088 of the Zeeleeuw from 2011-02-15 05:59:19 to 2011-02-15 14:27:17
Back to CruiseResearch ActivitiesStationsMapUnderway DataData graphs

EquipmentUnitsComment
TimeDGPSUTC
LatitudeDGPSDM.mWGS84
LongitudeDGPSDM.mWGS84
TemperatureSBE03/SBE38deg celciusITS90
ConductivitySBE21S/mITS90
SalinitySBE21 Practical Salinity Units
ChlorophylAChelsea fluorimeterg/lCalibrated in Aceton
Missing or incorrect values are displayed as -999
Sea surface data collected by the RV Zeeleeuw from 2011-02-15 05:54:16 to 2011-02-15 15:52:14
Time Latitude Longitude Temperature Conductivity Salinity ChlorophylA
2011-02-15 05:55:22 51°13.662 2°55.959 14.4505 0.06433 0.352474 0.218274
2011-02-15 05:56:21 51°13.662 2°55.959 14.4454 0.06433 0.352457 0.218274
2011-02-15 05:57:21 51°13.661 2°55.959 14.4509 0.06433 0.352451 0.253098
2011-02-15 05:58:20 51°13.662 2°55.96 14.4732 0.06433 0.352451 0.253098
2011-02-15 05:59:22 51°13.662 2°55.96 14.4689 0.06433 0.35244 0.253098
2011-02-15 06:00:22 51°13.661 2°55.96 14.485 0.06433 0.352434 0.253098
2011-02-15 06:01:22 51°13.66 2°55.959 14.4409 0.06433 0.352429 0.253098
2011-02-15 06:02:22 51°13.676 2°55.891 14.5032 0.06433 0.352429 0.253098
2011-02-15 06:03:22 51°13.693 2°55.789 14.4975 0.06433 0.352417 0.253098
2011-02-15 06:04:22 51°13.698 2°55.737 14.5144 0.06433 0.352412 0.253098
2011-02-15 06:05:19 51°13.715 2°55.746 14.5765 0.06433 0.352394 0.253098
2011-02-15 06:06:22 51°13.765 2°55.704 14.4113 0.06433 0.35236 0.253098
2011-02-15 06:07:21 51°13.872 2°55.604 14.2453 0.06433 0.3524 0.253098
2011-02-15 06:08:21 51°14.019 2°55.498 14.2488 0.06433 0.352377 0.253098
2011-02-15 06:09:19 51°14.168 2°55.39 14.4181 0.06433 0.352343 0.287922
2011-02-15 06:10:18 51°14.315 2°55.248 14.2852 0.06433 0.35232 0.253098
2011-02-15 06:11:18 51°14.469 2°55.077 14.2803 0.06433 0.352303 0.287922
2011-02-15 06:12:18 51°14.637 2°54.884 7.3309 0.354067 2.266168 0.35757
2011-02-15 06:13:18 51°14.815 2°54.682 6.8106 3.362792 32.466294 0.566514
2011-02-15 06:14:18 51°14.985 2°54.467 6.6951 3.373023 33.116119 0.53169
2011-02-15 06:15:18 51°15.154 2°54.249 6.6616 3.371127 33.230515 0.462042
2011-02-15 06:16:18 51°15.322 2°54.03 6.6201 3.378822 33.366713 0.462042
2011-02-15 06:17:18 51°15.49 2°53.809 6.5882 3.368282 33.304862 0.53169
2011-02-15 06:18:18 51°15.653 2°53.581 6.5798 3.377558 33.451515 0.462042
2011-02-15 06:19:18 51°15.838 2°53.412 6.5689 3.380299 33.501634 0.427218
2011-02-15 06:20:18 51°16.034 2°53.271 6.5387 3.3881 33.611709 0.427218
2011-02-15 06:21:18 51°16.229 2°53.128 6.4918 3.390209 33.660911 0.427218
2011-02-15 06:22:18 51°16.423 2°52.979 6.4772 3.388312 33.687014 0.462042
2011-02-15 06:23:18 51°16.615 2°52.827 6.4798 3.390947 33.726202 0.496866
2011-02-15 06:24:18 51°16.808 2°52.685 6.4719 3.391685 33.742774 0.496866
2011-02-15 06:25:18 51°17.001 2°52.55 6.4575 3.392634 33.768433 0.427218
2011-02-15 06:26:18 51°17.205 2°52.488 6.4561 3.394426 33.786547 0.636162
2011-02-15 06:27:18 51°17.415 2°52.478 6.4509 3.39801 33.84053 0.70581
2011-02-15 06:28:18 51°17.624 2°52.464 6.4543 3.399275 33.85621 0.810283
2011-02-15 06:29:18 51°17.834 2°52.449 6.4499 3.398537 33.855668 0.740634
2011-02-15 06:30:18 51°18.043 2°52.433 6.4543 3.397272 33.845062 0.845107
2011-02-15 06:31:18 51°18.253 2°52.411 6.4531 3.396956 33.83818 0.949579
2011-02-15 06:32:18 51°18.463 2°52.394 6.4466 3.396007 33.831071 0.949579
2011-02-15 06:33:18 51°18.673 2°52.368 6.446 3.396429 33.844198 1.019227
2011-02-15 06:34:18 51°18.883 2°52.344 6.4496 3.397799 33.858513 1.193347
2011-02-15 06:35:18 51°19.093 2°52.318 6.4469 3.398959 33.873884 0.984403
2011-02-15 06:36:18 51°19.302 2°52.291 6.4506 3.400224 33.884491 0.984403
2011-02-15 06:37:18 51°19.511 2°52.277 6.4559 3.4017 33.901668 1.088875
2011-02-15 06:38:18 51°19.722 2°52.283 6.4574 3.402332 33.905275 1.123699
2011-02-15 06:39:18 51°19.933 2°52.287 6.4525 3.403281 33.913228 1.088875
2011-02-15 06:40:18 51°20.145 2°52.288 6.4499 3.403386 33.916939 1.158523
2011-02-15 06:41:18 51°20.356 2°52.306 6.4416 3.404651 33.936879 1.088875
2011-02-15 06:42:18 51°20.565 2°52.347 6.4399 3.405389 33.948443 1.019227
2011-02-15 06:43:18 51°20.775 2°52.388 6.4339 3.405073 33.950039 1.123699
2011-02-15 06:44:18 51°20.985 2°52.422 6.4142 3.406233 33.972228 1.123699
2011-02-15 06:45:18 51°21.197 2°52.453 6.4038 3.407182 34.000608 0.984403
2011-02-15 06:46:18 51°21.409 2°52.491 6.3926 3.405811 33.993937 0.914755
2011-02-15 06:47:18 51°21.622 2°52.521 6.3842 3.406971 34.019574 0.810283
2011-02-15 06:48:18 51°21.834 2°52.555 6.3705 3.40792 34.036918 1.019227
2011-02-15 06:49:18 51°22.047 2°52.589 6.3578 3.408763 34.062496 0.949579
2011-02-15 06:50:18 51°22.26 2°52.63 6.3643 3.410345 34.088593 0.949579
2011-02-15 06:51:18 51°22.473 2°52.665 6.3637 3.413296 34.117935 0.879931
2011-02-15 06:52:18 51°22.686 2°52.698 6.3516 3.413929 34.13095 0.810283
2011-02-15 06:53:18 51°22.897 2°52.737 6.3494 3.413823 34.137488 0.775459
2011-02-15 06:54:18 51°23.105 2°52.803 6.3521 3.413613 34.132577 0.914755
2011-02-15 06:55:18 51°23.312 2°52.873 6.3523 3.413613 34.13429 0.810283
2011-02-15 06:56:18 51°23.52 2°52.936 6.3561 3.415194 34.156136 0.740634
2011-02-15 06:57:18 51°23.729 2°53.001 6.3665 3.416564 34.165355 0.810283
2011-02-15 06:58:18 51°23.938 2°53.058 6.3702 3.418356 34.178397 0.775459
2011-02-15 06:59:18 51°24.146 2°53.12 6.3787 3.419727 34.187611 0.879931
2011-02-15 07:00:18 51°24.353 2°53.185 6.3889 3.421413 34.196903 0.949579
2011-02-15 07:01:18 51°24.56 2°53.251 6.391 3.42194 34.193322 0.775459
2011-02-15 07:02:18 51°24.767 2°53.313 6.3919 3.422151 34.195662 0.775459
2011-02-15 07:03:18 51°24.973 2°53.384 6.4005 3.422783 34.198395 0.70581
2011-02-15 07:04:18 51°25.181 2°53.448 6.4008 3.42331 34.198243 0.879931
2011-02-15 07:05:18 51°25.39 2°53.506 6.3906 3.423627 34.205182 0.810283
2011-02-15 07:06:18 51°25.598 2°53.569 6.3762 3.421518 34.191214 0.845107
2011-02-15 07:07:18 51°25.806 2°53.635 6.3611 3.419516 34.182698 0.845107
2011-02-15 07:08:18 51°26.017 2°53.691 6.3515 3.417829 34.175974 0.740634
2011-02-15 07:09:18 51°26.227 2°53.752 6.3383 3.415405 34.163623 0.740634
2011-02-15 07:10:18 51°26.438 2°53.816 6.3253 3.413613 34.153147 0.636162
2011-02-15 07:11:18 51°26.649 2°53.874 6.3089 3.411505 34.145157 0.810283
2011-02-15 07:12:18 51°26.86 2°53.938 6.3493 3.41024 34.139674 0.740634
2011-02-15 07:13:18 51°27.07 2°54.005 6.3674 3.417513 34.181039 0.775459
2011-02-15 07:14:18 51°27.28 2°54.066 6.3697 3.419727 34.190184 0.670986
2011-02-15 07:15:18 51°27.489 2°54.136 6.3811 3.421413 34.204623 0.740634
2011-02-15 07:16:18 51°27.702 2°54.188 6.3908 3.423205 34.215082 0.636162
2011-02-15 07:17:18 51°27.916 2°54.204 6.3951 3.425208 34.227019 0.740634
2011-02-15 07:18:18 51°28.126 2°54.251 6.3864 3.426578 34.240513 0.70581
2011-02-15 07:19:18 51°28.335 2°54.302 6.3755 3.425313 34.235913 0.740634
2011-02-15 07:20:18 51°28.545 2°54.349 6.3799 3.423943 34.227566 0.601338
2011-02-15 07:21:18 51°28.755 2°54.399 6.3732 3.4231 34.21906 0.670986
2011-02-15 07:22:18 51°28.968 2°54.45 6.3553 3.421097 34.207977 0.670986
2011-02-15 07:23:18 51°29.183 2°54.502 6.3491 3.419516 34.199855 0.566514
2011-02-15 07:24:18 51°29.398 2°54.544 6.3307 3.418778 34.202818 0.601338
2011-02-15 07:25:18 51°29.613 2°54.594 6.3123 3.417724 34.203127 0.670986
2011-02-15 07:26:18 51°29.827 2°54.651 6.3186 3.415405 34.19281 0.601338
2011-02-15 07:27:18 51°30.041 2°54.704 6.3059 3.415721 34.195467 0.427218
2011-02-15 07:28:18 51°30.257 2°54.76 6.33 3.414246 34.192805 0.670986
2011-02-15 07:29:18 51°30.474 2°54.817 6.3486 3.418673 34.219689 0.566514
2011-02-15 07:30:18 51°30.691 2°54.868 6.3663 3.42194 34.229366 0.53169
2011-02-15 07:31:18 51°30.904 2°54.922 6.3694 3.425735 34.256916 0.636162
2011-02-15 07:32:18 51°31.113 2°54.967 6.374 3.426262 34.26449 0.636162
2011-02-15 07:33:18 51°31.317 2°55.066 6.3405 3.424892 34.251846 0.53169
2011-02-15 07:34:18 51°31.518 2°55.173 6.3173 3.418778 34.210548 0.496866
2011-02-15 07:35:18 51°31.72 2°55.276 6.2952 3.413929 34.180696 0.392394
2011-02-15 07:36:18 51°31.92 2°55.386 6.2707 3.408448 34.14292 0.35757
2011-02-15 07:37:18 51°32.116 2°55.488 6.2557 3.405391 34.127798 0.35757
2011-02-15 07:38:18 51°32.257 2°55.57 6.2442 3.403705 34.124486 0.462042
2011-02-15 07:39:18 51°32.372 2°55.638 6.2299 3.401491 34.113584 0.462042
2011-02-15 07:40:18 51°32.472 2°55.69 6.227 3.399172 34.097206 0.462042
2011-02-15 07:41:18 51°32.561 2°55.687 6.2198 3.397591 34.089901 0.392394
2011-02-15 07:42:18 51°32.634 2°55.666 6.21 3.396748 34.088238 0.427218
2011-02-15 07:43:18 51°32.687 2°55.646 6.2095 3.39601 34.082594 0.35757
2011-02-15 07:44:18 51°32.722 2°55.622 6.2086 3.395799 34.079385 0.35757
2011-02-15 07:45:18 51°32.74 2°55.584 6.2134 3.395905 34.083138 0.287922
2011-02-15 07:46:18 51°32.744 2°55.55 6.2097 3.395799 34.084541 0.322746
2011-02-15 07:47:18 51°32.747 2°55.527 6.2073 3.396326 34.086977 0.322746
2011-02-15 07:48:18 51°32.75 2°55.512 6.2092 3.395483 34.086173 0.35757
2011-02-15 07:49:18 51°32.754 2°55.506 6.2165 3.396116 34.088065 0.287922
2011-02-15 07:50:18 51°32.762 2°55.503 6.2238 3.396748 34.089098 0.322746
2011-02-15 07:51:18 51°32.767 2°55.497 6.2217 3.397697 34.096232 0.287922
2011-02-15 07:52:18 51°32.765 2°55.464 6.2239 3.397697 34.09881 0.253098
2011-02-15 07:53:18 51°32.752 2°55.415 6.213 3.397802 34.097406 0.322746
2011-02-15 07:54:18 51°32.736 2°55.37 6.215 3.396959 34.096604 0.253098
2011-02-15 07:55:18 51°32.722 2°55.336 6.2163 3.397381 34.098725 0.253098
2011-02-15 07:56:18 51°32.711 2°55.309 6.2227 3.398329 34.10242 0.287922
2011-02-15 07:57:18 51°32.703 2°55.288 6.2246 3.398435 34.102735 0.287922
2011-02-15 07:58:18 51°32.691 2°55.264 6.2239 3.398962 34.107748 0.253098
2011-02-15 07:59:18 51°32.631 2°55.301 6.2275 3.399489 34.112761 0.322746
2011-02-15 08:00:18 51°32.67 2°55.455 6.2317 3.400121 34.115509 0.287922
2011-02-15 08:01:18 51°32.755 2°55.628 6.2276 3.400753 34.113099 0.253098
2011-02-15 08:02:18 51°32.765 2°55.762 6.219 3.399594 34.098466 0.287922
2011-02-15 08:03:18 51°32.723 2°55.826 6.2092 3.398329 34.099841 0.287922
2011-02-15 08:04:18 51°32.687 2°55.801 6.2102 3.413157 31.304073 0.253098
2011-02-15 08:05:18 51°32.676 2°55.758 6.2101 3.396643 34.087923 0.287922
2011-02-15 08:06:18 51°32.672 2°55.731 6.229 3.397064 34.087466 0.253098
2011-02-15 08:07:18 51°32.672 2°55.715 6.2169 3.397907 34.094284 0.287922
2011-02-15 08:08:18 51°32.676 2°55.708 6.2227 3.397907 34.094284 0.253098
2011-02-15 08:09:18 51°32.683 2°55.703 6.2315 3.39854 34.093597 0.253098
2011-02-15 08:10:18 51°32.692 2°55.704 6.2372 3.399489 34.099869 0.253098
2011-02-15 08:11:18 51°32.702 2°55.705 6.2362 3.39991 34.099411 0.253098
2011-02-15 08:12:18 51°32.712 2°55.707 6.2259 3.399699 34.101358 0.253098
2011-02-15 08:13:18 51°32.718 2°55.695 6.2285 3.399172 34.097206 0.253098
2011-02-15 08:14:18 51°32.713 2°55.664 6.2275 3.399805 34.105969 0.287922
2011-02-15 08:15:18 51°32.705 2°55.626 6.2212 3.399067 34.099468 0.253098
2011-02-15 08:16:18 51°32.693 2°55.59 6.2271 3.398329 34.096404 0.253098
2011-02-15 08:17:18 51°32.681 2°55.56 6.2233 3.398962 34.100872 0.253098
2011-02-15 08:18:18 51°32.672 2°55.541 6.2296 3.400226 34.113245 0.253098
2011-02-15 08:19:18 51°32.668 2°55.528 6.233 3.401386 34.117566 0.253098
2011-02-15 08:20:18 51°32.663 2°55.519 6.2368 3.401597 34.118195 0.253098
2011-02-15 08:21:18 51°32.66 2°55.513 6.2341 3.402124 34.123206 0.253098
2011-02-15 08:22:18 51°32.658 2°55.507 6.2439 3.402124 34.124066 0.218274
2011-02-15 08:23:18 51°32.658 2°55.5 6.239 3.402229 34.12352 0.218274
2011-02-15 08:24:18 51°32.659 2°55.493 6.2385 3.402018 34.119454 0.218274
2011-02-15 08:25:18 51°32.659 2°55.486 6.248 3.402335 34.122975 0.218274
2011-02-15 08:26:18 51°32.659 2°55.479 6.2408 3.402229 34.120942 0.218274
2011-02-15 08:27:18 51°32.66 2°55.474 6.2415 3.402335 34.124694 0.218274
2011-02-15 08:28:18 51°32.662 2°55.47 6.2419 3.40244 34.125009 0.253098
2011-02-15 08:29:18 51°32.667 2°55.464 6.2477 3.402545 34.127043 0.253098
2011-02-15 08:30:18 51°32.672 2°55.459 6.2512 3.402651 34.119622 0.253098
2011-02-15 08:31:18 51°32.679 2°55.455 6.2544 3.403599 34.129327 0.218274
2011-02-15 08:32:18 51°32.683 2°55.451 6.2553 3.403705 34.126204 0.218274
2011-02-15 08:33:18 51°32.688 2°55.447 6.2578 3.403705 34.123627 0.18345
2011-02-15 08:34:18 51°32.692 2°55.441 6.259 3.403494 34.120421 0.253098
2011-02-15 08:35:18 51°32.695 2°55.433 6.2553 3.404443 34.130123 0.218274
2011-02-15 08:36:18 51°32.696 2°55.426 6.2585 3.405286 34.140371 0.253098
2011-02-15 08:37:18 51°32.699 2°55.421 6.2543 3.405181 34.142636 0.218274
2011-02-15 08:38:18 51°32.701 2°55.415 6.2523 3.405075 34.140602 0.218274
2011-02-15 08:39:18 51°32.703 2°55.41 6.2524 3.405181 34.141776 0.253098
2011-02-15 08:40:18 51°32.707 2°55.405 6.2545 3.405286 34.143809 0.218274
2011-02-15 08:41:18 51°32.711 2°55.399 6.2636 3.405918 34.145693 0.253098
2011-02-15 08:42:18 51°32.714 2°55.394 6.2617 3.406656 34.148751 0.218274
2011-02-15 08:43:18 51°32.716 2°55.388 6.2645 3.406762 34.150784 0.218274
2011-02-15 08:44:18 51°32.721 2°55.383 6.2631 3.407394 34.153526 0.253098
2011-02-15 08:45:18 51°32.728 2°55.38 6.2688 3.407183 34.153758 0.253098
2011-02-15 08:46:18 51°32.738 2°55.381 6.2731 3.407816 34.155641 0.253098
2011-02-15 08:47:18 51°32.752 2°55.386 6.2744 3.408554 34.160416 0.218274
2011-02-15 08:48:18 51°32.768 2°55.393 6.2781 3.408764 34.159324 0.218274
2011-02-15 08:49:18 51°32.784 2°55.402 6.2769 3.40887 34.158778 0.218274
2011-02-15 08:50:18 51°32.802 2°55.412 6.2696 3.408975 34.165109 0.218274
2011-02-15 08:51:18 51°32.817 2°55.416 6.2704 3.408659 34.162449 0.218274
2011-02-15 08:52:18 51°32.829 2°55.412 6.2716 3.407605 34.155014 0.218274
2011-02-15 08:53:18 51°32.829 2°55.389 6.2752 3.408659 34.160729 0.218274
2011-02-15 08:54:18 51°32.821 2°55.362 6.2773 3.408343 34.15721 0.218274
2011-02-15 08:55:18 51°32.813 2°55.342 6.2769 3.408448 34.155805 0.253098
2011-02-15 08:56:18 51°32.812 2°55.32 6.2762 3.410029 34.172542 0.253098
2011-02-15 08:57:18 51°32.814 2°55.272 6.2818 3.410346 34.172623 0.253098
2011-02-15 08:58:18 51°32.814 2°55.208 6.2869 3.411083 34.178255 0.218274
2011-02-15 08:59:18 51°32.811 2°55.151 6.2945 3.411927 34.18162 0.218274
2011-02-15 09:00:18 51°32.81 2°55.118 6.2989 3.412454 34.184905 0.253098
2011-02-15 09:01:18 51°32.811 2°55.1 6.3021 3.413297 34.192568 0.253098
2011-02-15 09:02:18 51°32.814 2°55.089 6.3061 3.414035 34.199058 0.218274
2011-02-15 09:03:18 51°32.817 2°55.084 6.306 3.414457 34.198589 0.253098
2011-02-15 09:04:18 51°32.823 2°55.081 6.305 3.414984 34.202732 0.218274
2011-02-15 09:05:18 51°32.828 2°55.079 6.3091 3.415089 34.203905 0.218274
2011-02-15 09:06:18 51°32.837 2°55.078 6.3094 3.415616 34.206328 0.218274
2011-02-15 09:07:18 51°32.845 2°55.078 6.3099 3.415616 34.207188 0.218274
2011-02-15 09:08:18 51°32.854 2°55.077 6.3119 3.416249 34.209064 0.253098
2011-02-15 09:09:18 51°32.862 2°55.077 6.3163 3.415932 34.206406 0.218274
2011-02-15 09:10:18 51°32.87 2°55.078 6.3238 3.416776 34.213206 0.218274
2011-02-15 09:11:18 51°32.877 2°55.077 6.3195 3.416776 34.213206 0.218274
2011-02-15 09:12:18 51°32.885 2°55.077 6.3166 3.416354 34.207657 0.218274
2011-02-15 09:13:18 51°32.894 2°55.076 6.3206 3.417197 34.215315 0.218274
2011-02-15 09:14:18 51°32.903 2°55.076 6.3277 3.41783 34.219769 0.253098
2011-02-15 09:15:18 51°32.911 2°55.076 6.3283 3.41804 34.220394 0.218274
2011-02-15 09:16:18 51°32.919 2°55.078 6.3275 3.418251 34.220159 0.218274
2011-02-15 09:17:18 51°32.929 2°55.079 6.3293 3.418462 34.221643 0.218274
2011-02-15 09:18:18 51°32.94 2°55.08 6.3256 3.418567 34.217657 0.218274
2011-02-15 09:19:18 51°32.949 2°55.079 6.3291 3.41783 34.212892 0.218274
2011-02-15 09:20:18 51°32.957 2°55.08 6.3295 3.419095 34.225236 0.218274
2011-02-15 09:21:18 51°32.967 2°55.078 6.3334 3.41783 34.210313 0.218274
2011-02-15 09:22:18 51°32.975 2°55.076 6.3321 3.418989 34.222345 0.218274
2011-02-15 09:23:18 51°32.983 2°55.075 6.3347 3.419411 34.224453 0.218274
2011-02-15 09:24:18 51°32.991 2°55.073 6.3349 3.419095 34.220938 0.218274
2011-02-15 09:25:18 51°33 2°55.073 6.3369 3.418989 34.219766 0.218274
2011-02-15 09:26:18 51°33.007 2°55.073 6.3364 3.420781 34.236248 0.218274
2011-02-15 09:27:18 51°33.015 2°55.074 6.3384 3.420887 34.23742 0.218274
2011-02-15 09:28:18 51°33.027 2°55.076 6.3419 3.421519 34.241011 0.218274
2011-02-15 09:29:18 51°33.037 2°55.077 6.3414 3.42173 34.243355 0.218274
2011-02-15 09:30:18 51°33.047 2°55.077 6.3442 3.422257 34.243194 0.218274
2011-02-15 09:31:18 51°33.059 2°55.077 6.3465 3.422468 34.246397 0.218274
2011-02-15 09:32:18 51°33.072 2°55.081 6.3478 3.4231 34.245688 0.253098
2011-02-15 09:33:18 51°33.086 2°55.084 6.3451 3.4231 34.244828 0.218274
2011-02-15 09:34:18 51°33.101 2°55.086 6.3504 3.423522 34.249514 0.218274
2011-02-15 09:35:18 51°33.115 2°55.088 6.347 3.423733 34.250997 0.218274
2011-02-15 09:36:18 51°33.127 2°55.091 6.3475 3.423943 34.25162 0.253098
2011-02-15 09:37:18 51°33.141 2°55.094 6.3513 3.424365 34.255445 0.218274
2011-02-15 09:38:18 51°33.153 2°55.098 6.3529 3.424787 34.253253 0.218274
2011-02-15 09:39:18 51°33.165 2°55.101 6.3515 3.425103 34.257626 0.218274
2011-02-15 09:40:18 51°33.178 2°55.108 6.3514 3.425208 34.261376 0.218274
2011-02-15 09:41:18 51°33.191 2°55.114 6.3542 3.425103 34.256766 0.218274
2011-02-15 09:42:18 51°33.203 2°55.12 6.3565 3.425735 34.259494 0.218274
2011-02-15 09:43:18 51°33.213 2°55.123 6.3568 3.426157 34.265038 0.218274
2011-02-15 09:44:18 51°33.224 2°55.126 6.3608 3.426052 34.263867 0.218274
2011-02-15 09:45:18 51°33.234 2°55.128 6.3625 3.425525 34.258872 0.218274
2011-02-15 09:46:18 51°33.249 2°55.132 6.3638 3.425314 34.25567 0.218274
2011-02-15 09:47:18 51°33.264 2°55.135 6.3701 3.425525 34.258012 0.218274
2011-02-15 09:48:18 51°33.279 2°55.14 6.373 3.427106 34.270419 0.218274
2011-02-15 09:49:18 51°33.293 2°55.149 6.3707 3.427317 34.269322 0.218274
2011-02-15 09:50:18 51°33.298 2°55.151 6.3763 3.427211 34.268151 0.218274
2011-02-15 09:51:18 51°33.261 2°55.152 6.3704 3.427317 34.269322 0.253098
2011-02-15 09:52:18 51°33.212 2°55.183 6.3682 3.427106 34.270419 0.218274
2011-02-15 09:53:18 51°33.21 2°55.262 6.3774 3.427738 34.273145 0.18345
2011-02-15 09:54:18 51°33.232 2°55.302 6.377 3.428265 34.27642 0.218274
2011-02-15 09:55:18 51°33.258 2°55.333 6.3698 3.427844 34.273456 0.218274
2011-02-15 09:56:18 51°33.284 2°55.359 6.3694 3.427738 34.274005 0.218274
2011-02-15 09:57:18 51°33.309 2°55.384 6.3703 3.427527 34.272523 0.218274
2011-02-15 09:58:18 51°33.334 2°55.406 6.3704 3.427738 34.274005 0.218274
2011-02-15 09:59:18 51°33.358 2°55.426 6.3723 3.427738 34.273145 0.18345
2011-02-15 10:00:18 51°33.383 2°55.446 6.374 3.427422 34.269633 0.218274
2011-02-15 10:01:18 51°33.41 2°55.506 6.386 3.427844 34.270018 0.18345
2011-02-15 10:02:18 51°33.4 2°55.594 6.3762 3.429003 34.275159 0.218274
2011-02-15 10:03:18 51°33.363 2°55.588 6.3659 3.427738 34.272285 0.218274
2011-02-15 10:04:18 51°33.314 2°55.541 6.3735 3.426684 34.271753 0.18345
2011-02-15 10:05:18 51°33.273 2°55.503 6.3716 3.427106 34.271278 0.218274
2011-02-15 10:06:18 51°33.254 2°55.485 6.3731 3.427106 34.269559 0.18345
2011-02-15 10:07:18 51°33.254 2°55.482 6.3757 3.427844 34.276035 0.18345
2011-02-15 10:08:18 51°33.273 2°55.491 6.3752 3.427844 34.276895 0.218274
2011-02-15 10:09:18 51°33.296 2°55.503 6.3773 3.427738 34.274005 0.253098
2011-02-15 10:10:18 51°33.32 2°55.515 6.3748 3.427106 34.26784 0.218274
2011-02-15 10:11:18 51°33.345 2°55.528 6.3759 3.427633 34.270255 0.218274
2011-02-15 10:12:18 51°33.37 2°55.543 6.3839 3.427422 34.267054 0.218274
2011-02-15 10:13:18 51°33.396 2°55.558 6.3832 3.429003 34.279457 0.218274
2011-02-15 10:14:18 51°33.408 2°55.546 6.387 3.429319 34.281249 0.218274
2011-02-15 10:15:18 51°33.396 2°55.527 6.3846 3.428792 34.279694 0.218274
2011-02-15 10:16:18 51°33.354 2°55.495 6.3896 3.429003 34.282036 0.218274
2011-02-15 10:17:18 51°33.293 2°55.448 6.3907 3.429425 34.284999 0.218274
2011-02-15 10:18:18 51°33.229 2°55.406 6.3838 3.429741 34.290231 0.218274
2011-02-15 10:19:18 51°33.201 2°55.366 6.3836 3.429952 34.292572 0.18345
2011-02-15 10:20:18 51°33.186 2°55.341 6.3878 3.430374 34.296395 0.218274
2011-02-15 10:21:18 51°33.177 2°55.329 6.3848 3.430901 34.301389 0.253098
2011-02-15 10:22:18 51°33.168 2°55.311 6.3878 3.430901 34.298808 0.253098
2011-02-15 10:23:18 51°33.169 2°55.266 6.3923 3.431006 34.296539 0.218274
2011-02-15 10:24:18 51°33.211 2°55.223 6.391 3.43206 34.305664 0.218274
2011-02-15 10:25:18 51°33.27 2°55.235 6.3972 3.432376 34.308315 0.218274
2011-02-15 10:26:18 51°33.305 2°55.26 6.3983 3.433009 34.313618 0.218274
2011-02-15 10:27:18 51°33.332 2°55.28 6.4015 3.433114 34.311348 0.218274
2011-02-15 10:28:18 51°33.357 2°55.296 6.3966 3.43343 34.313138 0.253098
2011-02-15 10:29:18 51°33.381 2°55.314 6.3989 3.433009 34.311897 0.218274
2011-02-15 10:30:18 51°33.405 2°55.329 6.4026 3.43322 34.309078 0.218274
2011-02-15 10:31:18 51°33.432 2°55.348 6.4012 3.433957 34.31125 0.218274
2011-02-15 10:32:18 51°33.46 2°55.396 6.4038 3.43343 34.308839 0.218274
2011-02-15 10:33:18 51°33.473 2°55.47 6.399 3.433536 34.30657 0.218274
2011-02-15 10:34:18 51°33.46 2°55.525 6.3955 3.432271 34.297686 0.218274
2011-02-15 10:35:18 51°33.421 2°55.53 6.3969 3.432903 34.311587 0.253098
2011-02-15 10:36:18 51°33.355 2°55.508 6.3965 3.432798 34.308697 0.218274
2011-02-15 10:37:18 51°33.279 2°55.47 6.4021 3.433114 34.307908 0.18345
2011-02-15 10:38:18 51°33.213 2°55.39 6.4002 3.433325 34.311108 0.18345
2011-02-15 10:39:18 51°33.147 2°55.307 6.4012 3.433536 34.313449 0.18345
2011-02-15 10:40:18 51°33.09 2°55.226 6.3988 3.434274 34.320781 0.18345
2011-02-15 10:41:18 51°33.058 2°55.182 6.4036 3.434485 34.320541 0.218274
2011-02-15 10:42:18 51°33.047 2°55.162 6.4086 3.434801 34.324912 0.18345
2011-02-15 10:43:18 51°33.048 2°55.158 6.4042 3.435328 34.324741 0.218274
2011-02-15 10:44:18 51°33.057 2°55.161 6.4048 3.434801 34.321471 0.218274
2011-02-15 10:45:18 51°33.059 2°55.157 6.407 3.434906 34.326082 0.218274
2011-02-15 10:46:18 51°33.048 2°55.123 6.4047 3.435539 34.328802 0.218274
2011-02-15 10:47:18 51°33.047 2°55.103 6.4062 3.435117 34.329283 0.218274
2011-02-15 10:48:18 51°33.057 2°55.098 6.4072 3.434696 34.328043 0.218274
2011-02-15 10:49:18 51°33.074 2°55.101 6.4091 3.435117 34.329283 0.218274
2011-02-15 10:50:18 51°33.096 2°55.104 6.414 3.435328 34.328182 0.218274
2011-02-15 10:51:18 51°33.118 2°55.112 6.4161 3.43596 34.331762 0.218274
2011-02-15 10:52:18 51°33.143 2°55.121 6.4135 3.43596 34.331762 0.18345
2011-02-15 10:53:18 51°33.169 2°55.134 6.4172 3.43596 34.330901 0.18345
2011-02-15 10:54:18 51°33.197 2°55.149 6.4095 3.436066 34.332072 0.218274
2011-02-15 10:55:18 51°33.223 2°55.164 6.4078 3.435855 34.333173 0.218274
2011-02-15 10:56:18 51°33.251 2°55.18 6.4113 3.435644 34.333413 0.218274
2011-02-15 10:57:18 51°33.278 2°55.197 6.4073 3.435855 34.334033 0.218274
2011-02-15 10:58:18 51°33.303 2°55.213 6.4122 3.43575 34.332002 0.218274
2011-02-15 10:59:18 51°33.328 2°55.227 6.4111 3.436066 34.332932 0.218274
2011-02-15 11:00:18 51°33.354 2°55.243 6.4113 3.435855 34.331452 0.18345
2011-02-15 11:01:18 51°33.38 2°55.257 6.4126 3.436171 34.334102 0.18345
2011-02-15 11:02:18 51°33.402 2°55.267 6.4161 3.436277 34.336133 0.18345
2011-02-15 11:03:18 51°33.398 2°55.251 6.4091 3.436382 34.336442 0.218274
2011-02-15 11:04:18 51°33.37 2°55.29 6.4179 3.436171 34.336683 0.218274
2011-02-15 11:05:18 51°33.337 2°55.394 6.4117 3.436698 34.338232 0.218274
2011-02-15 11:06:18 51°33.301 2°55.519 6.408 3.436593 34.337062 0.18345
2011-02-15 11:07:18 51°33.25 2°55.633 6.4122 3.43575 34.331142 0.18345
2011-02-15 11:08:18 51°33.198 2°55.738 6.4027 3.435855 34.332312 0.18345
2011-02-15 11:09:18 51°33.17 2°55.818 6.403 3.435328 34.327322 0.218274
2011-02-15 11:10:18 51°33.15 2°55.885 6.4085 3.435117 34.327562 0.218274
2011-02-15 11:11:18 51°33.11 2°55.957 6.4039 3.434906 34.323501 0.218274
2011-02-15 11:12:18 51°33.053 2°56.036 6.4036 3.43459 34.320851 0.218274
2011-02-15 11:13:18 51°33.026 2°56.158 6.4038 3.43459 34.31827 0.218274
2011-02-15 11:14:18 51°33.042 2°56.255 6.4058 3.434379 34.31593 0.218274
2011-02-15 11:15:18 51°33.072 2°56.316 6.4007 3.434274 34.312181 0.18345
2011-02-15 11:16:18 51°33.102 2°56.358 6.405 3.433536 34.308289 0.218274
2011-02-15 11:17:18 51°33.13 2°56.388 6.4018 3.433852 34.30922 0.218274
2011-02-15 11:18:18 51°33.156 2°56.411 6.4055 3.43322 34.304779 0.253098
2011-02-15 11:19:18 51°33.18 2°56.429 6.4032 3.433009 34.305018 0.218274
2011-02-15 11:20:18 51°33.206 2°56.441 6.4028 3.433325 34.307668 0.253098
2011-02-15 11:21:18 51°33.231 2°56.45 6.4091 3.433114 34.303609 0.253098
2011-02-15 11:22:18 51°33.257 2°56.457 6.4072 3.433325 34.304229 0.253098
2011-02-15 11:23:18 51°33.282 2°56.465 6.4059 3.43322 34.3022 0.253098
2011-02-15 11:24:18 51°33.305 2°56.47 6.4056 3.433536 34.307429 0.253098
2011-02-15 11:25:18 51°33.329 2°56.474 6.403 3.433325 34.304229 0.218274
2011-02-15 11:26:18 51°33.353 2°56.477 6.4049 3.433325 34.305089 0.253098
2011-02-15 11:27:18 51°33.377 2°56.478 6.4081 3.433325 34.305089 0.218274
2011-02-15 11:28:18 51°33.4 2°56.48 6.4107 3.433536 34.30485 0.218274
2011-02-15 11:29:18 51°33.424 2°56.482 6.4107 3.433747 34.305471 0.218274
2011-02-15 11:30:18 51°33.448 2°56.486 6.4038 3.433536 34.303991 0.253098
2011-02-15 11:31:18 51°33.472 2°56.49 6.4046 3.433641 34.303441 0.218274
2011-02-15 11:32:18 51°33.495 2°56.495 6.4134 3.43343 34.301961 0.253098
2011-02-15 11:33:18 51°33.52 2°56.502 6.4133 3.434063 34.306402 0.218274
2011-02-15 11:34:18 51°33.547 2°56.51 6.4178 3.433957 34.304373 0.253098
2011-02-15 11:35:18 51°33.588 2°56.527 6.4142 3.434484 34.305065 0.218274
2011-02-15 11:36:18 51°33.637 2°56.529 6.4121 3.433852 34.303203 0.218274
2011-02-15 11:37:18 51°33.673 2°56.473 6.406 3.433325 34.30337 0.218274
2011-02-15 11:38:18 51°33.647 2°56.429 6.4089 3.433747 34.313209 0.218274
2011-02-15 11:39:18 51°33.62 2°56.436 6.4074 3.434063 34.31586 0.218274
2011-02-15 11:40:18 51°33.604 2°56.443 6.4143 3.434485 34.31882 0.218274
2011-02-15 11:41:18 51°33.591 2°56.456 6.4081 3.434695 34.316861 0.253098
2011-02-15 11:42:18 51°33.581 2°56.472 6.4069 3.434695 34.320301 0.253098
2011-02-15 11:43:18 51°33.571 2°56.489 6.4062 3.434379 34.31851 0.218274
2011-02-15 11:44:18 51°33.563 2°56.509 6.4086 3.434063 34.31414 0.218274
2011-02-15 11:45:18 51°33.556 2°56.53 6.4113 3.434485 34.31796 0.218274
2011-02-15 11:46:18 51°33.549 2°56.55 6.4122 3.43459 34.31655 0.253098
2011-02-15 11:47:18 51°33.542 2°56.566 6.4059 3.43459 34.31655 0.253098
2011-02-15 11:48:18 51°33.534 2°56.58 6.4114 3.434274 34.31562 0.253098
2011-02-15 11:49:18 51°33.523 2°56.597 6.4054 3.434485 34.31624 0.218274
2011-02-15 11:50:18 51°33.513 2°56.618 6.4075 3.434379 34.31679 0.253098
2011-02-15 11:51:18 51°33.503 2°56.638 6.4027 3.434274 34.3139 0.218274
2011-02-15 11:52:18 51°33.494 2°56.65 6.4058 3.433958 34.314689 0.218274
2011-02-15 11:53:18 51°33.486 2°56.643 6.4077 3.433747 34.30891 0.253098
2011-02-15 11:54:18 51°33.444 2°56.57 6.4069 3.433852 34.314379 0.218274
2011-02-15 11:55:18 51°33.332 2°56.381 6.4151 3.433641 34.30774 0.218274
2011-02-15 11:56:18 51°33.22 2°56.196 6.4073 3.43459 34.31655 0.18345
2011-02-15 11:57:18 51°33.156 2°56.202 6.409 3.434801 34.322331 0.218274
2011-02-15 11:58:18 51°33.163 2°56.303 6.4079 3.435539 34.328802 0.253098
2011-02-15 11:59:18 51°33.228 2°56.343 6.407 3.434906 34.321781 0.253098
2011-02-15 12:00:18 51°33.281 2°56.346 6.413 3.434695 34.319441 0.253098
2011-02-15 12:01:18 51°33.329 2°56.336 6.4161 3.43459 34.31913 0.218274
2011-02-15 12:02:18 51°33.36 2°56.304 6.4058 3.434801 34.321471 0.218274
2011-02-15 12:03:18 51°33.372 2°56.257 6.4196 3.434695 34.321161 0.253098
2011-02-15 12:04:18 51°33.366 2°56.176 6.414 3.434906 34.320061 0.218274
2011-02-15 12:05:18 51°33.326 2°55.996 6.4103 3.435222 34.322711 0.218274
2011-02-15 12:06:18 51°33.287 2°55.813 6.412 3.435012 34.322951 0.218274
2011-02-15 12:07:18 51°33.264 2°55.685 6.4135 3.435328 34.326461 0.18345
2011-02-15 12:08:18 51°33.305 2°55.604 6.4121 3.435539 34.324501 0.218274
2011-02-15 12:09:18 51°33.368 2°55.608 6.4141 3.435855 34.327151 0.218274
2011-02-15 12:10:18 51°33.414 2°55.629 6.4115 3.43575 34.327701 0.218274
2011-02-15 12:11:18 51°33.446 2°55.645 6.4163 3.43596 34.328321 0.218274
2011-02-15 12:12:18 51°33.467 2°55.651 6.4167 3.436487 34.33159 0.218274
2011-02-15 12:13:18 51°33.48 2°55.648 6.4179 3.436171 34.329801 0.218274
2011-02-15 12:14:18 51°33.489 2°55.645 6.4186 3.436066 34.328631 0.253098
2011-02-15 12:15:18 51°33.494 2°55.643 6.4135 3.436277 34.331831 0.253098
2011-02-15 12:16:18 51°33.504 2°55.645 6.4138 3.436382 34.333861 0.253098
2011-02-15 12:17:18 51°33.527 2°55.649 6.4148 3.436593 34.335341 0.253098
2011-02-15 12:18:18 51°33.556 2°55.656 6.422 3.436909 34.33197 0.218274
2011-02-15 12:19:18 51°33.586 2°55.667 6.4275 3.437647 34.332418 0.218274
2011-02-15 12:20:18 51°33.614 2°55.679 6.4233 3.437963 34.329909 0.218274
2011-02-15 12:21:18 51°33.65 2°55.704 6.4273 3.437963 34.333348 0.218274
2011-02-15 12:22:18 51°33.674 2°55.788 6.4252 3.438069 34.331938 0.218274
2011-02-15 12:23:18 51°33.65 2°55.867 6.4179 3.438279 34.335996 0.218274
2011-02-15 12:24:18 51°33.593 2°55.902 6.4178 3.437963 34.333348 0.218274
2011-02-15 12:25:18 51°33.527 2°55.906 6.4188 3.437436 34.333519 0.218274
2011-02-15 12:26:18 51°33.466 2°55.947 6.4193 3.437752 34.335308 0.218274
2011-02-15 12:27:18 51°33.433 2°56.004 6.4201 3.437436 34.329219 0.218274
2011-02-15 12:28:18 51°33.418 2°56.055 6.4182 3.437752 34.330149 0.18345
2011-02-15 12:29:18 51°33.387 2°56.086 6.4172 3.437331 34.32633 0.218274
2011-02-15 12:30:18 51°33.304 2°56.067 6.4166 3.436804 34.323062 0.253098
2011-02-15 12:31:18 51°33.199 2°56.068 6.4188 3.436909 34.325951 0.218274
2011-02-15 12:32:18 51°33.094 2°56.118 6.4207 3.436804 34.320483 0.218274
2011-02-15 12:33:18 51°33.037 2°56.208 6.4209 3.436909 34.317356 0.218274
2011-02-15 12:34:18 51°33.004 2°56.254 6.4256 3.436593 34.317285 0.218274
2011-02-15 12:35:18 51°33.002 2°56.333 6.426 3.436487 34.315256 0.253098
2011-02-15 12:36:18 51°33.054 2°56.392 6.4254 3.436276 34.313777 0.218274
2011-02-15 12:37:18 51°33.105 2°56.411 6.4237 3.436698 34.314158 0.253098
2011-02-15 12:38:18 51°33.145 2°56.425 6.4216 3.436276 34.314636 0.218274
2011-02-15 12:39:18 51°33.179 2°56.439 6.4269 3.435855 34.312536 0.253098
2011-02-15 12:40:18 51°33.203 2°56.445 6.4235 3.436066 34.314016 0.253098
2011-02-15 12:41:18 51°33.235 2°56.461 6.4254 3.43596 34.313705 0.253098
2011-02-15 12:42:18 51°33.287 2°56.46 6.4254 3.43596 34.316284 0.253098
2011-02-15 12:43:18 51°33.322 2°56.418 6.4252 3.435644 34.311915 0.253098
2011-02-15 12:44:18 51°33.333 2°56.372 6.4187 3.43596 34.317143 0.218274
2011-02-15 12:45:18 51°33.321 2°56.342 6.4259 3.435433 34.315593 0.218274
2011-02-15 12:46:18 51°33.292 2°56.326 6.4213 3.43596 34.318862 0.253098
2011-02-15 12:47:18 51°33.255 2°56.327 6.4274 3.435644 34.313634 0.218274
2011-02-15 12:48:18 51°33.228 2°56.339 6.4247 3.435855 34.313395 0.218274
2011-02-15 12:49:18 51°33.211 2°56.35 6.4301 3.435749 34.311366 0.218274
2011-02-15 12:50:18 51°33.2 2°56.362 6.4307 3.436276 34.312917 0.218274
2011-02-15 12:51:18 51°33.192 2°56.376 6.4331 3.436276 34.309481 0.218274
2011-02-15 12:52:18 51°33.187 2°56.391 6.4351 3.435749 34.304493 0.253098
2011-02-15 12:53:18 51°33.182 2°56.408 6.4356 3.436171 34.305735 0.253098
2011-02-15 12:54:18 51°33.181 2°56.426 6.4369 3.435644 34.301606 0.218274
2011-02-15 12:55:18 51°33.182 2°56.441 6.4371 3.436803 34.311891 0.253098
2011-02-15 12:56:18 51°33.185 2°56.457 6.4377 3.436803 34.31275 0.218274
2011-02-15 12:57:18 51°33.189 2°56.473 6.4356 3.436803 34.311891 0.253098
2011-02-15 12:58:18 51°33.196 2°56.489 6.4344 3.436593 34.312129 0.253098
2011-02-15 12:59:18 51°33.205 2°56.508 6.4313 3.436487 34.311819 0.218274
2011-02-15 13:00:18 51°33.219 2°56.529 6.4353 3.436382 34.311509 0.218274
2011-02-15 13:01:18 51°33.223 2°56.573 6.436 3.436382 34.31065 0.253098
2011-02-15 13:02:18 51°33.193 2°56.579 6.4291 3.436487 34.309242 0.253098
2011-02-15 13:03:18 51°33.175 2°56.48 6.4285 3.436066 34.306283 0.253098
2011-02-15 13:04:18 51°33.157 2°56.338 6.4289 3.435855 34.310817 0.253098
2011-02-15 13:05:18 51°33.14 2°56.203 6.4324 3.435539 34.30645 0.253098
2011-02-15 13:06:18 51°33.128 2°56.132 6.4375 3.436066 34.310579 0.253098
2011-02-15 13:07:18 51°33.125 2°56.09 6.4362 3.436593 34.31127 0.253098
2011-02-15 13:08:18 51°33.129 2°56.063 6.4364 3.436803 34.314468 0.253098
2011-02-15 13:09:18 51°33.139 2°56.045 6.4403 3.43712 34.316257 0.253098
2011-02-15 13:10:18 51°33.154 2°56.033 6.4377 3.43712 34.318835 0.253098
2011-02-15 13:11:18 51°33.17 2°56.022 6.4395 3.437225 34.317427 0.253098
2011-02-15 13:12:18 51°33.187 2°56.015 6.45 3.437436 34.314611 0.253098
2011-02-15 13:13:18 51°33.206 2°56.009 6.4529 3.438279 34.318809 0.253098
2011-02-15 13:14:18 51°33.225 2°56.004 6.4514 3.438385 34.316542 0.18345
2011-02-15 13:15:18 51°33.245 2°55.999 6.452 3.438174 34.31764 0.253098
2011-02-15 13:16:18 51°33.263 2°55.974 6.4516 3.43849 34.320288 0.287922
2011-02-15 13:17:18 51°33.302 2°55.927 6.4441 3.438174 34.31764 0.287922
2011-02-15 13:18:18 51°33.361 2°55.932 6.4425 3.438595 34.321457 0.287922
2011-02-15 13:19:18 51°33.404 2°55.964 6.4407 3.438068 34.31733 0.253098
2011-02-15 13:20:18 51°33.438 2°55.993 6.4384 3.437858 34.319287 0.253098
2011-02-15 13:21:18 51°33.465 2°56.018 6.4401 3.437752 34.317259 0.253098
2011-02-15 13:22:18 51°33.488 2°56.04 6.4401 3.438279 34.31795 0.253098
2011-02-15 13:23:18 51°33.51 2°56.057 6.4388 3.437963 34.318738 0.253098
2011-02-15 13:24:18 51°33.529 2°56.071 6.4378 3.437647 34.317808 0.253098
2011-02-15 13:25:18 51°33.548 2°56.082 6.4363 3.437541 34.316639 0.287922
2011-02-15 13:26:18 51°33.567 2°56.093 6.4384 3.437331 34.316018 0.253098
2011-02-15 13:27:18 51°33.586 2°56.125 6.4417 3.437331 34.3143 0.253098
2011-02-15 13:28:18 51°33.588 2°56.21 6.4355 3.437963 34.320456 0.253098
2011-02-15 13:29:18 51°33.536 2°56.325 6.4315 3.437225 34.315708 0.253098
2011-02-15 13:30:18 51°33.408 2°56.487 6.4337 3.436909 34.314778 0.253098
2011-02-15 13:31:18 51°33.234 2°56.666 6.4402 3.436803 34.31275 0.35757
2011-02-15 13:32:18 51°33.061 2°56.859 6.4426 3.436487 34.306666 0.322746
2011-02-15 13:33:18 51°32.889 2°57.052 6.452 3.437541 34.309768 0.322746
2011-02-15 13:34:19 51°32.716 2°57.252 6.4536 3.438174 34.312487 0.322746
2011-02-15 13:35:19 51°32.542 2°57.434 6.4649 3.440704 34.332807 0.322746
2011-02-15 13:36:18 51°32.345 2°57.502 6.4667 3.44218 34.342295 0.287922
2011-02-15 13:37:19 51°32.142 2°57.449 6.4661 3.442496 34.343223 0.35757
2011-02-15 13:38:18 51°31.946 2°57.382 6.4659 3.441969 34.339958 0.322746
2011-02-15 13:39:19 51°31.741 2°57.317 6.4641 3.441758 34.340198 0.322746
2011-02-15 13:40:18 51°31.568 2°57.249 6.4733 3.441863 34.340507 0.322746
2011-02-15 13:41:19 51°31.525 2°57.129 6.464 3.442074 34.335973 0.322746
2011-02-15 13:42:19 51°31.62 2°57.098 6.4613 3.441231 34.327486 0.35757
2011-02-15 13:43:19 51°31.693 2°57.176 6.4668 3.441547 34.332708 0.322746
2011-02-15 13:44:19 51°31.717 2°57.186 6.4703 3.442285 34.337451 0.322746
2011-02-15 13:45:19 51°31.738 2°57.18 6.4684 3.442179 34.338 0.322746
2011-02-15 13:46:19 51°31.759 2°57.23 6.4713 3.44239 34.339478 0.322746
2011-02-15 13:47:18 51°31.77 2°57.269 6.4745 3.443023 34.338759 0.322746
2011-02-15 13:48:19 51°31.777 2°57.305 6.4749 3.442601 34.33838 0.322746
2011-02-15 13:49:19 51°31.74 2°57.318 6.4708 3.443234 34.33852 0.322746
2011-02-15 13:50:18 51°31.722 2°57.274 6.4684 3.44239 34.339478 0.35757
2011-02-15 13:51:18 51°31.724 2°57.237 6.472 3.442074 34.338549 0.322746
2011-02-15 13:52:19 51°31.726 2°57.212 6.468 3.442074 34.337691 0.287922
2011-02-15 13:53:19 51°31.728 2°57.193 6.4705 3.442074 34.341126 0.322746
2011-02-15 13:54:19 51°31.72 2°57.187 6.471 3.441863 34.337072 0.287922
2011-02-15 13:55:19 51°31.716 2°57.194 6.4701 3.442179 34.338859 0.287922
2011-02-15 13:56:19 51°31.713 2°57.207 6.4724 3.442285 34.337451 0.322746
2011-02-15 13:57:19 51°31.71 2°57.221 6.4696 3.442074 34.335973 0.322746
2011-02-15 13:58:19 51°31.708 2°57.228 6.4734 3.442496 34.340646 0.287922
2011-02-15 13:59:19 51°31.7 2°57.227 6.4706 3.44239 34.339478 0.287922
2011-02-15 14:00:18 51°31.684 2°57.216 6.476 3.441863 34.332778 0.287922
2011-02-15 14:01:18 51°31.673 2°57.204 6.47 3.442285 34.334017 0.287922
2011-02-15 14:02:19 51°31.689 2°57.198 6.472 3.441863 34.333637 0.35757
2011-02-15 14:03:21 51°31.709 2°57.19 6.4676 3.441231 34.332637 0.322746
2011-02-15 14:04:19 51°31.728 2°57.183 6.4705 3.440914 34.329991 0.287922
2011-02-15 14:05:19 51°31.751 2°57.155 6.4761 3.441231 34.331779 0.287922
2011-02-15 14:06:19 51°31.796 2°57.107 6.4738 3.441442 34.329822 0.287922
2011-02-15 14:07:19 51°31.854 2°57.112 6.4688 3.441652 34.334735 0.287922
2011-02-15 14:08:18 51°31.896 2°57.134 6.4679 3.441652 34.336452 0.287922
2011-02-15 14:09:19 51°31.928 2°57.154 6.4684 3.442179 34.338859 0.287922
2011-02-15 14:10:18 51°31.955 2°57.17 6.4729 3.442074 34.335973 0.322746
2011-02-15 14:11:19 51°31.981 2°57.188 6.4688 3.442496 34.340646 0.322746
2011-02-15 14:12:19 51°31.995 2°57.233 6.471 3.442496 34.339788 0.322746
2011-02-15 14:13:19 51°31.97 2°57.274 6.4701 3.441969 34.332229 0.392394
2011-02-15 14:14:18 51°31.887 2°57.239 6.4666 3.442285 34.340027 0.287922
2011-02-15 14:15:19 51°31.704 2°57.177 6.4672 3.441758 34.337621 0.322746
2011-02-15 14:16:19 51°31.505 2°57.102 6.4625 3.441442 34.334974 0.322746
2011-02-15 14:17:19 51°31.305 2°57.027 6.4468 3.439544 34.32167 0.35757
2011-02-15 14:18:18 51°31.108 2°56.948 6.4337 3.436909 34.303613 0.287922
2011-02-15 14:19:19 51°30.904 2°56.865 6.4209 3.434168 34.286955 0.322746
2011-02-15 14:20:18 51°30.705 2°56.786 6.4047 3.431744 34.275514 0.253098
2011-02-15 14:21:19 51°30.498 2°56.704 6.3989 3.429319 34.262348 0.253098
2011-02-15 14:22:19 51°30.294 2°56.619 6.4052 3.428581 34.255875 0.287922
2011-02-15 14:23:19 51°30.09 2°56.532 6.4018 3.428476 34.254706 0.287922
2011-02-15 14:24:19 51°29.887 2°56.447 6.4065 3.428687 34.256187 0.287922
2011-02-15 14:25:18 51°29.687 2°56.366 6.4064 3.429108 34.253999 0.35757
2011-02-15 14:26:19 51°29.481 2°56.283 6.409 3.429108 34.253999 0.427218
2011-02-15 14:27:18 51°29.283 2°56.202 6.4069 3.429108 34.252282 0.427218
2011-02-15 14:28:18 51°29.082 2°56.12 6.4114 3.428581 34.251583 0.496866
2011-02-15 14:29:18 51°28.88 2°56.034 6.4071 3.42837 34.246669 0.462042
2011-02-15 14:30:18 51°28.68 2°55.95 6.405 3.427422 34.243007 0.496866
2011-02-15 14:31:19 51°28.476 2°55.866 6.4029 3.427316 34.244411 0.462042
2011-02-15 14:32:18 51°28.278 2°55.785 6.416 3.428054 34.246593 0.392394
2011-02-15 14:33:19 51°28.072 2°55.7 6.416 3.429424 34.253217 0.427218
2011-02-15 14:34:19 51°27.87 2°55.613 6.4176 3.429214 34.250878 0.427218
2011-02-15 14:35:19 51°27.667 2°55.527 6.4087 3.428581 34.247292 0.462042
2011-02-15 14:36:19 51°27.465 2°55.441 6.3997 3.427632 34.24363 0.462042
2011-02-15 14:37:19 51°27.263 2°55.354 6.3942 3.425735 34.233727 0.53169
2011-02-15 14:38:19 51°27.061 2°55.266 6.3972 3.425103 34.228423 0.53169
2011-02-15 14:39:19 51°26.856 2°55.176 6.4102 3.425313 34.223899 0.496866
2011-02-15 14:40:18 51°26.655 2°55.088 6.4202 3.427 34.228033 0.496866
2011-02-15 14:41:18 51°26.449 2°54.999 6.4328 3.428581 34.236141 0.427218
2011-02-15 14:42:19 51°26.242 2°54.905 6.428 3.428792 34.23848 0.462042
2011-02-15 14:43:18 51°26.042 2°54.815 6.4018 3.427316 34.228969 0.496866
2011-02-15 14:44:19 51°25.834 2°54.722 6.3858 3.424365 34.215086 0.53169
2011-02-15 14:45:18 51°25.634 2°54.629 6.3786 3.421835 34.201584 0.53169
2011-02-15 14:46:19 51°25.425 2°54.538 6.3705 3.420359 34.191203 0.53169
2011-02-15 14:47:18 51°25.223 2°54.449 6.3722 3.419516 34.184413 0.601338
2011-02-15 14:48:19 51°25.013 2°54.355 6.3732 3.419305 34.182072 0.566514
2011-02-15 14:49:19 51°24.805 2°54.263 6.3741 3.41941 34.1841 0.496866
2011-02-15 14:50:19 51°24.599 2°54.17 6.3895 3.420464 34.189801 0.496866
2011-02-15 14:51:19 51°24.393 2°54.073 6.4001 3.422362 34.198002 0.427218
2011-02-15 14:52:19 51°24.185 2°53.98 6.4039 3.423521 34.198011 0.462042
2011-02-15 14:53:17 51°23.981 2°53.932 6.4086 3.423521 34.200583 0.392394
2011-02-15 14:54:17 51°23.783 2°53.809 6.4045 3.423521 34.1903 0.427218
2011-02-15 14:55:19 51°23.588 2°53.626 6.3976 3.422362 34.188573 0.427218
2011-02-15 14:56:17 51°23.406 2°53.452 6.3928 3.421202 34.179134 0.427218
2011-02-15 14:57:17 51°23.217 2°53.272 6.3941 3.42057 34.173829 0.462042
2011-02-15 14:58:19 51°23.023 2°53.085 6.3919 3.419516 34.165558 0.462042
2011-02-15 14:59:17 51°22.851 2°52.887 6.3877 3.418883 34.161109 0.496866
2011-02-15 15:00:19 51°22.662 2°52.687 6.3871 3.41804 34.155176 0.462042
2011-02-15 15:01:18 51°22.472 2°52.537 6.3858 3.417407 34.148156 0.496866
2011-02-15 15:02:19 51°22.256 2°52.53 6.399 3.416669 34.140824 0.462042
2011-02-15 15:03:19 51°22.042 2°52.526 6.4048 3.417618 34.137657 0.392394
2011-02-15 15:04:19 51°21.826 2°52.517 6.4103 3.417829 34.133152 0.35757
2011-02-15 15:05:18 51°21.614 2°52.505 6.4085 3.417829 34.128876 0.322746
2011-02-15 15:06:19 51°21.396 2°52.488 6.4087 3.416669 34.118581 0.392394
2011-02-15 15:07:19 51°21.181 2°52.473 6.4001 3.414983 34.104149 0.392394
2011-02-15 15:08:19 51°20.967 2°52.456 6.4051 3.413296 34.086298 0.427218
2011-02-15 15:09:19 51°20.753 2°52.438 6.3989 3.411504 34.063863 0.53169
2011-02-15 15:10:18 51°20.542 2°52.422 6.3934 3.40929 34.046996 0.566514
2011-02-15 15:11:18 51°20.328 2°52.404 6.4013 3.407076 34.022448 0.566514
2011-02-15 15:12:18 51°20.112 2°52.383 6.3993 3.405074 33.996832 0.566514
2011-02-15 15:13:18 51°19.895 2°52.362 6.402 3.403387 33.977282 0.601338
2011-02-15 15:14:18 51°19.678 2°52.343 6.4118 3.40286 33.965481 0.636162
2011-02-15 15:15:19 51°19.457 2°52.317 6.4119 3.403703 33.972274 0.636162
2011-02-15 15:16:19 51°19.239 2°52.301 6.4054 3.403598 33.967702 0.636162
2011-02-15 15:17:19 51°19.021 2°52.281 6.4238 3.40286 33.956973 0.636162
2011-02-15 15:18:19 51°18.804 2°52.26 6.429 3.40307 33.949955 0.601338
2011-02-15 15:19:19 51°18.587 2°52.237 6.4334 3.402965 33.944537 0.636162
2011-02-15 15:20:19 51°18.37 2°52.244 6.4327 3.40307 33.942305 0.601338
2011-02-15 15:21:19 51°18.153 2°52.254 6.4378 3.403492 33.939328 0.636162
2011-02-15 15:22:19 51°17.935 2°52.267 6.4474 3.402649 33.926594 0.566514
2011-02-15 15:23:18 51°17.721 2°52.275 6.4547 3.401278 33.904635 0.601338
2011-02-15 15:24:18 51°17.504 2°52.285 6.4702 3.399381 33.877702 0.636162
2011-02-15 15:25:18 51°17.286 2°52.3 6.4798 3.398116 33.849311 0.670986
2011-02-15 15:26:18 51°17.072 2°52.331 6.4746 3.397588 33.833331 0.670986
2011-02-15 15:27:19 51°16.861 2°52.414 6.4738 3.396113 33.822088 0.636162
2011-02-15 15:28:18 51°16.676 2°52.567 6.4833 3.394953 33.810112 0.670986
2011-02-15 15:29:19 51°16.485 2°52.733 6.4823 3.394742 33.798487 0.636162
2011-02-15 15:30:19 51°16.296 2°52.891 6.4872 3.391474 33.762369 0.601338
2011-02-15 15:31:19 51°16.12 2°53.076 6.5101 3.387258 33.708193 0.53169
2011-02-15 15:32:18 51°15.948 2°53.26 6.5246 0.456129 3.20291 0.53169
2011-02-15 15:33:19 51°15.774 2°53.46 7.0409 0.086495 0.558296 0.218274
2011-02-15 15:34:19 51°15.606 2°53.658 7.6688 0.059441 0.377238 0.078977
2011-02-15 15:35:19 51°15.437 2°53.858 11.4511 0.055592 0.351446 0.078977
2011-02-15 15:36:19 51°15.272 2°54.075 12.6143 0.054552 0.347887 0.113802
2011-02-15 15:37:19 51°15.101 2°54.28 13.0648 0.053928 0.347187 0.078977
2011-02-15 15:38:19 51°14.93 2°54.481 13.0406 0.054344 0.350548 0.078977
2011-02-15 15:39:18 51°14.763 2°54.688 12.9904 0.055904 0.360983 0.148626
2011-02-15 15:40:19 51°14.593 2°54.893 12.9713 0.057985 0.374909 0.113802
2011-02-15 15:41:19 51°14.43 2°55.1 12.972 0.06069 0.393652 0.078977
2011-02-15 15:42:19 51°14.277 2°55.279 12.9813 0.061938 0.402212 0.113802
2011-02-15 15:43:18 51°14.141 2°55.404 13.0126 0.06173 0.400625 0.113802
2011-02-15 15:44:18 51°14.023 2°55.488 13.0192 0.06173 0.400399 0.113802
2011-02-15 15:45:18 51°13.922 2°55.561 13.025 0.06173 0.4001 0.148626
2011-02-15 15:46:18 51°13.84 2°55.62 13.0645 0.06173 0.400003 0.18345
2011-02-15 15:47:19 51°13.777 2°55.698 13.0963 0.061418 0.397827 0.148626
2011-02-15 15:48:21 51°13.722 2°55.792 13.1391 0.061002 0.394985 0.148626
2011-02-15 15:49:19 51°13.686 2°55.87 13.1635 0.06069 0.392757 0.18345
2011-02-15 15:50:18 51°13.666 2°55.944 13.179 0.060378 0.39057 0.18345
2011-02-15 15:51:19 51°13.664 2°55.956 13.3148 0.060274 0.389723 0.218274